createdAt,value
2016-11-07T00:00:52.374Z,0
2016-11-07T00:02:07.316Z,0
2016-11-07T00:02:52.412Z,0
2016-11-07T00:04:07.456Z,0
2016-11-07T00:04:52.451Z,0
2016-11-07T00:06:07.694Z,0
2016-11-07T00:06:52.491Z,0
2016-11-07T00:07:52.509Z,0
2016-11-07T00:08:52.530Z,0
2016-11-07T00:09:52.587Z,0
2016-11-07T00:10:52.565Z,0
2016-11-07T00:11:52.584Z,0
2016-11-07T00:12:52.604Z,0
2016-11-07T00:13:52.617Z,0
2016-11-07T00:14:52.802Z,0
2016-11-07T00:16:07.582Z,0
2016-11-07T00:17:07.608Z,0
2016-11-07T00:17:52.696Z,0
2016-11-07T00:19:52.737Z,0
2016-11-07T00:21:07.676Z,0
2016-11-07T00:22:07.697Z,0
2016-11-07T00:22:53.085Z,0
2016-11-07T00:23:52.837Z,0
2016-11-07T00:24:52.832Z,0
2016-11-07T00:25:52.879Z,0
2016-11-07T00:26:52.869Z,0
2016-11-07T00:28:07.814Z,0
2016-11-07T00:28:52.902Z,0
2016-11-07T00:29:52.955Z,0
2016-11-07T00:30:52.936Z,0
2016-11-07T00:31:52.961Z,0
2016-11-07T00:32:53.008Z,0
2016-11-07T00:34:07.927Z,0
2016-11-07T00:35:22.862Z,0
2016-11-07T00:36:07.962Z,0
2016-11-07T00:36:53.052Z,0
2016-11-07T00:37:53.072Z,0
2016-11-07T00:38:53.095Z,0
2016-11-07T00:39:53.111Z,0
2016-11-07T00:40:53.126Z,0
2016-11-07T00:41:53.147Z,0
2016-11-07T00:43:08.088Z,0
2016-11-07T00:43:53.186Z,0
2016-11-07T00:44:53.207Z,0
2016-11-07T00:45:53.228Z,0
2016-11-07T00:46:53.273Z,0
2016-11-07T00:47:53.268Z,0
2016-11-07T00:48:53.283Z,0
2016-11-07T00:49:53.295Z,0
2016-11-07T00:50:53.327Z,0
2016-11-07T00:51:53.328Z,0
2016-11-07T00:53:23.198Z,0
2016-11-07T00:54:08.299Z,0
2016-11-07T00:54:53.401Z,0
2016-11-07T00:55:53.723Z,0
2016-11-07T00:56:53.443Z,0
2016-11-07T00:57:53.455Z,0
2016-11-07T00:58:53.778Z,0
2016-11-07T00:59:53.491Z,0
2016-11-07T01:00:53.840Z,0
2016-11-07T01:01:53.535Z,0
2016-11-07T01:02:53.548Z,0
2016-11-07T01:03:53.564Z,0
2016-11-07T01:04:53.572Z,0
2016-11-07T01:06:08.518Z,0
2016-11-07T01:07:08.535Z,0
2016-11-07T01:07:53.669Z,0
2016-11-07T01:09:08.881Z,0
2016-11-07T01:09:53.667Z,0
2016-11-07T01:10:53.691Z,0
2016-11-07T01:11:53.712Z,0
2016-11-07T01:12:53.735Z,0
2016-11-07T01:13:53.749Z,0
2016-11-07T01:14:53.759Z,0
2016-11-07T01:15:53.789Z,0
2016-11-07T01:16:53.811Z,0
2016-11-07T01:17:53.815Z,0
2016-11-07T01:18:53.837Z,0
2016-11-07T01:19:53.865Z,0
2016-11-07T01:21:23.727Z,0
2016-11-07T01:21:53.904Z,0
2016-11-07T01:22:53.916Z,0
2016-11-07T01:24:08.862Z,0
2016-11-07T01:25:08.872Z,0
2016-11-07T01:26:08.891Z,0
2016-11-07T01:26:53.989Z,0
2016-11-07T01:27:54.006Z,0
2016-11-07T01:28:54.031Z,0
2016-11-07T01:29:54.045Z,0
2016-11-07T01:30:54.061Z,0
2016-11-07T01:31:54.091Z,0
2016-11-07T01:32:54.144Z,0
2016-11-07T01:33:54.118Z,0
2016-11-07T01:35:54.164Z,0
2016-11-07T01:36:54.182Z,0
2016-11-07T01:38:09.122Z,0
2016-11-07T01:38:54.220Z,0
2016-11-07T01:39:54.290Z,0
2016-11-07T01:41:09.172Z,0
2016-11-07T01:41:54.277Z,0
2016-11-07T01:42:54.284Z,0
2016-11-07T01:43:54.307Z,0
2016-11-07T01:44:54.323Z,0
2016-11-07T01:45:54.378Z,0
2016-11-07T01:46:54.363Z,0
2016-11-07T01:47:54.406Z,0
2016-11-07T01:48:54.405Z,0
2016-11-07T01:49:54.411Z,0
2016-11-07T01:50:54.437Z,0
2016-11-07T01:51:54.457Z,0
2016-11-07T01:53:09.400Z,0
2016-11-07T01:53:54.497Z,0
2016-11-07T01:55:09.442Z,0
2016-11-07T01:56:09.448Z,0
2016-11-07T01:57:09.497Z,0
2016-11-07T01:58:09.495Z,0
2016-11-07T01:58:54.622Z,0
2016-11-07T01:59:54.604Z,0
2016-11-07T02:00:54.627Z,0
2016-11-07T02:01:54.640Z,0
2016-11-07T02:02:54.661Z,0
2016-11-07T02:03:54.977Z,0
2016-11-07T02:04:54.697Z,0
2016-11-07T02:05:54.714Z,0
2016-11-07T02:06:54.764Z,0
2016-11-07T02:07:54.760Z,0
2016-11-07T02:09:24.620Z,0
2016-11-07T02:09:54.801Z,0
2016-11-07T02:10:54.813Z,0
2016-11-07T02:11:54.831Z,0
2016-11-07T02:14:54.891Z,0
2016-11-07T02:15:54.900Z,0
2016-11-07T02:16:54.929Z,0
2016-11-07T02:17:54.940Z,0
2016-11-07T02:18:54.993Z,0
2016-11-07T02:19:54.981Z,0
2016-11-07T02:20:54.999Z,0
2016-11-07T02:21:55.025Z,0
2016-11-07T02:23:09.950Z,0
2016-11-07T02:23:55.054Z,0
2016-11-07T02:25:09.984Z,0
2016-11-07T02:25:55.099Z,0
2016-11-07T02:27:10.067Z,0
2016-11-07T02:28:10.044Z,0
2016-11-07T02:28:55.151Z,0
2016-11-07T02:29:55.167Z,0
2016-11-07T02:31:10.106Z,0
2016-11-07T02:31:55.211Z,0
2016-11-07T02:34:55.294Z,0
2016-11-07T02:36:10.196Z,0
2016-11-07T02:36:55.303Z,0
2016-11-07T02:38:10.239Z,0
2016-11-07T02:38:55.335Z,0
2016-11-07T02:41:10.293Z,0
2016-11-07T02:41:55.395Z,0
2016-11-07T02:42:55.398Z,0
2016-11-07T02:44:10.383Z,0
2016-11-07T02:44:55.436Z,0
2016-11-07T02:45:55.463Z,0
2016-11-07T02:46:55.499Z,0
2016-11-07T02:47:55.492Z,0
2016-11-07T02:48:55.518Z,0
2016-11-07T02:49:55.576Z,0
2016-11-07T02:50:55.556Z,0
2016-11-07T02:51:55.575Z,0
2016-11-07T02:52:55.588Z,0
2016-11-07T02:54:10.538Z,0
2016-11-07T02:54:55.625Z,0
2016-11-07T02:55:55.655Z,0
2016-11-07T02:56:55.669Z,0
2016-11-07T02:57:55.685Z,0
2016-11-07T02:58:55.730Z,0
2016-11-07T03:00:10.643Z,0
2016-11-07T03:01:55.766Z,0
2016-11-07T03:02:55.778Z,0
2016-11-07T03:03:55.833Z,0
2016-11-07T03:04:55.850Z,0
2016-11-07T03:06:11.009Z,0
2016-11-07T03:06:55.863Z,0
2016-11-07T03:07:55.874Z,0
2016-11-07T03:09:55.906Z,0
2016-11-07T03:10:55.934Z,0
2016-11-07T03:12:10.865Z,0
2016-11-07T03:13:55.986Z,0
2016-11-07T03:16:25.861Z,0
2016-11-07T03:16:56.045Z,0
2016-11-07T03:17:56.056Z,0
2016-11-07T03:19:56.085Z,0
2016-11-07T03:20:56.117Z,0
2016-11-07T03:21:56.134Z,0
2016-11-07T03:22:56.150Z,0
2016-11-07T03:23:56.166Z,0
2016-11-07T03:24:56.194Z,0
2016-11-07T03:25:56.211Z,0
2016-11-07T03:27:11.140Z,0
2016-11-07T03:27:56.238Z,0
2016-11-07T03:28:56.271Z,0
2016-11-07T03:29:56.289Z,0
2016-11-07T03:31:11.249Z,0
2016-11-07T03:32:11.242Z,0
2016-11-07T03:33:11.261Z,0
2016-11-07T03:34:11.310Z,0
2016-11-07T03:34:56.376Z,0
2016-11-07T03:35:56.393Z,0
2016-11-07T03:36:56.444Z,0
2016-11-07T03:37:56.428Z,0
2016-11-07T03:38:56.450Z,0
2016-11-07T03:39:56.465Z,0
2016-11-07T03:41:11.410Z,0
2016-11-07T03:42:11.425Z,0
2016-11-07T03:42:56.515Z,0
2016-11-07T03:44:56.554Z,0
2016-11-07T03:45:56.569Z,0
2016-11-07T03:46:56.593Z,0
2016-11-07T03:47:56.621Z,0
2016-11-07T03:48:56.621Z,0
2016-11-07T03:49:56.648Z,0
2016-11-07T03:50:56.983Z,0
2016-11-07T03:51:56.690Z,0
2016-11-07T03:52:56.750Z,0
2016-11-07T03:53:56.724Z,0
2016-11-07T03:54:56.742Z,0
2016-11-07T03:55:56.768Z,0
2016-11-07T03:56:56.780Z,0
2016-11-07T03:57:56.801Z,0
2016-11-07T03:58:56.836Z,0
2016-11-07T03:59:56.867Z,0
2016-11-07T04:01:11.776Z,0
2016-11-07T04:01:56.872Z,0
2016-11-07T04:03:11.807Z,0
2016-11-07T04:03:56.908Z,0
2016-11-07T04:04:56.960Z,0
2016-11-07T04:05:56.944Z,0
2016-11-07T04:06:56.998Z,0
2016-11-07T04:07:56.993Z,0
2016-11-07T04:08:56.995Z,0
2016-11-07T04:10:11.949Z,0
2016-11-07T04:10:57.036Z,0
2016-11-07T04:11:57.055Z,0
2016-11-07T04:12:57.068Z,0
2016-11-07T04:13:57.086Z,0
2016-11-07T04:15:12.333Z,0
2016-11-07T04:15:57.129Z,0
2016-11-07T04:16:57.142Z,0
2016-11-07T04:17:57.167Z,0
2016-11-07T04:19:12.104Z,0
2016-11-07T04:19:57.204Z,0
2016-11-07T04:20:57.218Z,0
2016-11-07T04:21:57.236Z,0
2016-11-07T04:22:57.253Z,0
2016-11-07T04:23:57.301Z,0
2016-11-07T04:24:57.295Z,0
2016-11-07T04:25:57.306Z,0
2016-11-07T04:26:57.341Z,0
2016-11-07T04:27:57.344Z,0
2016-11-07T04:28:57.368Z,0
2016-11-07T04:29:57.390Z,0
2016-11-07T04:31:12.320Z,0
2016-11-07T04:31:57.422Z,0
2016-11-07T04:35:12.394Z,0
2016-11-07T04:35:57.532Z,0
2016-11-07T04:36:57.544Z,0
2016-11-07T04:37:57.534Z,0
2016-11-07T04:38:57.589Z,0
2016-11-07T04:39:57.563Z,0
2016-11-07T04:40:57.586Z,0
2016-11-07T04:41:57.602Z,0
2016-11-07T04:42:57.667Z,0
2016-11-07T04:43:57.645Z,0
2016-11-07T04:44:57.663Z,0
2016-11-07T04:45:57.671Z,0
2016-11-07T04:47:57.709Z,0
2016-11-07T04:48:57.735Z,0
2016-11-07T04:49:57.751Z,0
2016-11-07T04:51:12.689Z,0
2016-11-07T04:51:57.813Z,0
2016-11-07T04:54:12.779Z,0
2016-11-07T04:55:12.763Z,0
2016-11-07T04:55:57.856Z,0
2016-11-07T04:56:57.877Z,0
2016-11-07T04:57:57.896Z,0
2016-11-07T04:58:57.919Z,0
2016-11-07T04:59:57.936Z,0
2016-11-07T05:00:57.947Z,0
2016-11-07T05:01:57.975Z,0
2016-11-07T05:03:12.913Z,0
2016-11-07T05:03:57.999Z,0
2016-11-07T05:04:58.033Z,0
2016-11-07T05:06:27.890Z,0
2016-11-07T05:06:58.065Z,0
2016-11-07T05:07:58.114Z,0
2016-11-07T05:08:58.135Z,0
2016-11-07T05:09:58.122Z,0
2016-11-07T05:11:13.069Z,0
2016-11-07T05:11:58.192Z,0
2016-11-07T05:12:58.169Z,0
2016-11-07T05:14:13.112Z,0
2016-11-07T05:14:58.216Z,0
2016-11-07T05:15:58.226Z,0
2016-11-07T05:17:13.174Z,0
2016-11-07T05:17:58.270Z,0
2016-11-07T05:19:13.248Z,0
2016-11-07T05:19:58.302Z,0
2016-11-07T05:20:58.321Z,0
2016-11-07T05:22:13.274Z,0
2016-11-07T05:22:58.357Z,0
2016-11-07T05:23:58.371Z,0
2016-11-07T05:24:58.397Z,0
2016-11-07T05:25:58.407Z,0
2016-11-07T05:26:58.433Z,0
2016-11-07T05:27:58.503Z,0
2016-11-07T05:28:58.484Z,0
2016-11-07T05:29:58.492Z,0
2016-11-07T05:30:58.511Z,0
2016-11-07T05:31:58.530Z,0
2016-11-07T05:33:13.470Z,0
2016-11-07T05:33:58.565Z,0
2016-11-07T05:35:13.526Z,0
2016-11-07T05:35:58.602Z,0
2016-11-07T05:36:58.625Z,0
2016-11-07T05:38:13.555Z,0
2016-11-07T05:38:58.646Z,0
2016-11-07T05:39:58.671Z,0
2016-11-07T05:40:58.689Z,0
2016-11-07T05:41:58.709Z,0
2016-11-07T05:42:58.741Z,0
2016-11-07T05:43:58.748Z,0
2016-11-07T05:44:58.771Z,0
2016-11-07T05:45:58.781Z,0
2016-11-07T05:46:58.795Z,0
2016-11-07T05:47:58.823Z,0
2016-11-07T05:48:58.833Z,0
2016-11-07T05:50:13.779Z,0
2016-11-07T05:50:58.903Z,0
2016-11-07T05:51:58.888Z,0
2016-11-07T05:53:13.828Z,0
2016-11-07T05:54:13.846Z,0
2016-11-07T05:54:58.949Z,0
2016-11-07T05:55:58.964Z,0
2016-11-07T05:57:13.908Z,0
2016-11-07T05:57:59.004Z,0
2016-11-07T05:58:59.025Z,0
2016-11-07T05:59:59.043Z,0
2016-11-07T06:00:59.060Z,0
2016-11-07T06:01:59.084Z,0
2016-11-07T06:03:59.110Z,0
2016-11-07T06:04:59.130Z,0
2016-11-07T06:06:14.070Z,0
2016-11-07T06:07:59.187Z,0
2016-11-07T06:09:14.125Z,0
2016-11-07T06:10:29.068Z,0
2016-11-07T06:10:59.254Z,0
2016-11-07T06:11:59.256Z,0
2016-11-07T06:12:59.276Z,0
2016-11-07T06:13:59.309Z,0
2016-11-07T06:15:14.237Z,0
2016-11-07T06:15:59.332Z,0
2016-11-07T06:17:14.276Z,0
2016-11-07T06:18:14.289Z,0
2016-11-07T06:18:59.389Z,0
2016-11-07T06:19:59.416Z,0
2016-11-07T06:20:59.432Z,0
2016-11-07T06:21:59.457Z,0
2016-11-07T06:22:59.456Z,0
2016-11-07T06:23:59.487Z,0
2016-11-07T06:24:59.502Z,0
2016-11-07T06:26:14.445Z,0
2016-11-07T06:26:59.538Z,0
2016-11-07T06:27:59.563Z,0
2016-11-07T06:28:59.579Z,0
2016-11-07T06:29:59.588Z,0
2016-11-07T06:30:59.615Z,0
2016-11-07T06:31:59.631Z,0
2016-11-07T06:32:59.690Z,0
2016-11-07T06:33:59.662Z,0
2016-11-07T06:34:59.679Z,0
2016-11-07T06:35:59.701Z,0
2016-11-07T06:37:14.645Z,0
2016-11-07T06:37:59.740Z,0
2016-11-07T06:38:59.762Z,5
2016-11-07T06:39:59.773Z,5
2016-11-07T06:41:14.714Z,5
2016-11-07T06:41:59.821Z,5
2016-11-07T06:42:59.831Z,5
2016-11-07T06:44:14.765Z,5
2016-11-07T06:44:59.883Z,5
2016-11-07T06:46:14.811Z,5
2016-11-07T06:46:59.908Z,5
2016-11-07T06:47:59.926Z,5
2016-11-07T06:50:14.878Z,5
2016-11-07T06:50:59.979Z,5
2016-11-07T06:53:00.020Z,5
2016-11-07T06:54:00.027Z,5
2016-11-07T06:55:14.980Z,5
2016-11-07T06:56:29.914Z,5
2016-11-07T06:57:00.089Z,5
2016-11-07T06:58:00.111Z,5
2016-11-07T06:59:00.122Z,5
2016-11-07T07:00:00.148Z,5
2016-11-07T07:01:00.161Z,5
2016-11-07T07:02:00.181Z,10
2016-11-07T07:03:00.206Z,10
2016-11-07T07:05:15.157Z,10
2016-11-07T07:06:00.560Z,10
2016-11-07T07:07:15.195Z,10
2016-11-07T07:09:00.306Z,10
2016-11-07T07:10:30.176Z,10
2016-11-07T07:12:15.290Z,10
2016-11-07T07:13:15.309Z,10
2016-11-07T07:14:00.433Z,10
2016-11-07T07:15:00.418Z,10
2016-11-07T07:16:00.448Z,10
2016-11-07T07:17:00.458Z,10
2016-11-07T07:18:00.475Z,10
2016-11-07T07:19:00.503Z,10
2016-11-07T07:20:15.439Z,10
2016-11-07T07:21:15.451Z,10
2016-11-07T07:22:00.549Z,10
2016-11-07T07:23:15.487Z,15
2016-11-07T07:24:00.590Z,15
2016-11-07T07:25:00.603Z,15
2016-11-07T07:26:15.543Z,10
2016-11-07T07:27:15.563Z,15
2016-11-07T07:29:15.605Z,15
2016-11-07T07:30:00.697Z,15
2016-11-07T07:31:00.713Z,15
2016-11-07T07:32:15.881Z,15
2016-11-07T07:33:00.757Z,15
2016-11-07T07:34:01.074Z,15
2016-11-07T07:35:15.721Z,15
2016-11-07T07:37:00.827Z,15
2016-11-07T07:38:15.782Z,20
2016-11-07T07:39:00.986Z,20
2016-11-07T07:40:00.880Z,20
2016-11-07T07:41:00.892Z,20
2016-11-07T07:42:00.918Z,20
2016-11-07T07:43:00.941Z,20
2016-11-07T07:44:00.960Z,20
2016-11-07T07:45:15.898Z,20
2016-11-07T07:46:15.920Z,20
2016-11-07T07:47:01.014Z,20
2016-11-07T07:48:01.045Z,20
2016-11-07T07:49:01.050Z,20
2016-11-07T07:50:15.989Z,20
2016-11-07T07:51:01.086Z,20
2016-11-07T07:52:01.143Z,20
2016-11-07T07:53:01.166Z,25
2016-11-07T07:54:01.142Z,25
2016-11-07T07:55:16.118Z,25
2016-11-07T07:56:01.180Z,25
2016-11-07T07:58:16.138Z,30
2016-11-07T07:59:01.238Z,35
2016-11-07T08:00:01.260Z,35
2016-11-07T08:01:16.190Z,40
2016-11-07T08:02:01.288Z,45
2016-11-07T08:03:01.609Z,45
2016-11-07T08:04:01.331Z,45
2016-11-07T08:05:01.343Z,45
2016-11-07T08:06:01.358Z,45
2016-11-07T08:07:01.386Z,50
2016-11-07T08:08:01.405Z,45
2016-11-07T08:09:01.416Z,50
2016-11-07T08:10:01.440Z,50
2016-11-07T08:11:01.460Z,50
2016-11-07T08:12:01.479Z,50
2016-11-07T08:13:16.416Z,45
2016-11-07T08:15:16.758Z,50
2016-11-07T08:16:16.470Z,55
2016-11-07T08:17:01.572Z,60
2016-11-07T08:18:01.595Z,55
2016-11-07T08:20:01.633Z,60
2016-11-07T08:21:01.652Z,65
2016-11-07T08:22:01.671Z,65
2016-11-07T08:23:16.612Z,60
2016-11-07T08:24:01.694Z,60
2016-11-07T08:25:01.765Z,55
2016-11-07T08:26:16.662Z,60
2016-11-07T08:27:16.681Z,55
2016-11-07T08:29:01.798Z,50
2016-11-07T08:30:01.818Z,50
2016-11-07T08:31:16.759Z,50
2016-11-07T08:32:02.162Z,50
2016-11-07T08:33:01.918Z,50
2016-11-07T08:34:01.891Z,50
2016-11-07T08:35:01.914Z,50
2016-11-07T08:36:01.923Z,50
2016-11-07T08:37:16.868Z,50
2016-11-07T08:38:16.885Z,55
2016-11-07T08:39:01.978Z,55
2016-11-07T08:41:02.035Z,50
2016-11-07T08:42:02.049Z,50
2016-11-07T08:43:16.985Z,50
2016-11-07T08:44:02.077Z,45
2016-11-07T08:45:02.095Z,40
2016-11-07T08:46:02.360Z,40
2016-11-07T08:47:02.137Z,40
2016-11-07T08:48:17.106Z,40
2016-11-07T08:49:02.169Z,40
2016-11-07T08:50:02.460Z,40
2016-11-07T08:51:02.203Z,40
2016-11-07T08:52:02.230Z,40
2016-11-07T08:53:02.252Z,45
2016-11-07T08:54:02.273Z,45
2016-11-07T08:55:02.287Z,45
2016-11-07T08:56:17.222Z,50
2016-11-07T08:57:02.320Z,55
2016-11-07T08:58:02.340Z,55
2016-11-07T08:59:17.281Z,55
2016-11-07T09:00:17.353Z,50
2016-11-07T09:01:17.316Z,50
2016-11-07T09:02:17.339Z,45
2016-11-07T09:03:02.443Z,50
2016-11-07T09:04:17.384Z,60
2016-11-07T09:05:02.469Z,65
2016-11-07T09:06:02.495Z,70
2016-11-07T09:07:02.519Z,70
2016-11-07T09:08:17.452Z,80
2016-11-07T09:09:02.581Z,90
2016-11-07T09:10:02.565Z,90
2016-11-07T09:11:02.587Z,90
2016-11-07T09:12:02.610Z,95
2016-11-07T09:13:02.625Z,110
2016-11-07T09:14:02.955Z,120
2016-11-07T09:15:02.659Z,115
2016-11-07T09:16:17.606Z,125
2016-11-07T09:17:02.699Z,125
2016-11-07T09:18:02.729Z,120
2016-11-07T09:19:02.742Z,115
2016-11-07T09:20:17.682Z,120
2016-11-07T09:21:02.791Z,110
2016-11-07T09:23:17.737Z,95
2016-11-07T09:24:02.986Z,95
2016-11-07T09:25:02.882Z,90
2016-11-07T09:26:02.877Z,85
2016-11-07T09:27:02.894Z,75
2016-11-07T09:28:03.207Z,70
2016-11-07T09:29:02.935Z,65
2016-11-07T09:30:02.961Z,60
2016-11-07T09:31:17.896Z,55
2016-11-07T09:32:02.994Z,55
2016-11-07T09:33:03.003Z,55
2016-11-07T09:35:03.053Z,55
2016-11-07T09:36:17.983Z,55
2016-11-07T09:37:03.088Z,50
2016-11-07T09:38:03.106Z,50
2016-11-07T09:39:03.161Z,50
2016-11-07T09:40:18.065Z,50
2016-11-07T09:41:03.165Z,50
2016-11-07T09:42:03.493Z,50
2016-11-07T09:43:03.197Z,55
2016-11-07T09:44:03.219Z,60
2016-11-07T09:45:03.233Z,65
2016-11-07T09:46:03.258Z,65
2016-11-07T09:47:03.284Z,65
2016-11-07T09:48:18.801Z,55
2016-11-07T09:49:03.317Z,50
2016-11-07T09:50:03.345Z,55
2016-11-07T09:51:18.281Z,55
2016-11-07T09:52:18.294Z,55
2016-11-07T09:53:03.390Z,55
2016-11-07T09:54:03.406Z,55
2016-11-07T09:55:03.427Z,55
2016-11-07T09:56:03.456Z,55
2016-11-07T09:57:03.462Z,50
2016-11-07T09:58:03.487Z,55
2016-11-07T09:59:03.518Z,60
2016-11-07T10:00:03.531Z,65
2016-11-07T10:01:03.846Z,65
2016-11-07T10:02:18.485Z,70
2016-11-07T10:03:03.579Z,70
2016-11-07T10:04:04.261Z,75
2016-11-07T10:06:03.644Z,90
2016-11-07T10:07:18.579Z,95
2016-11-07T10:08:03.684Z,100
2016-11-07T10:09:03.700Z,105
2016-11-07T10:10:03.709Z,110
2016-11-07T10:11:04.043Z,100
2016-11-07T10:13:03.777Z,90
2016-11-07T10:14:04.097Z,80
2016-11-07T10:15:03.814Z,75
2016-11-07T10:16:03.828Z,65
2016-11-07T10:17:03.863Z,60
2016-11-07T10:18:03.915Z,60
2016-11-07T10:19:18.816Z,65
2016-11-07T10:20:18.933Z,70
2016-11-07T10:21:18.854Z,70
2016-11-07T10:22:03.945Z,70
2016-11-07T10:23:18.890Z,70
2016-11-07T10:24:03.987Z,70
2016-11-07T10:25:04.043Z,65
2016-11-07T10:26:04.023Z,60
2016-11-07T10:27:04.037Z,60
2016-11-07T10:28:04.071Z,60
2016-11-07T10:30:04.199Z,55
2016-11-07T10:32:04.178Z,50
2016-11-07T10:33:04.167Z,45
2016-11-07T10:34:04.181Z,40
2016-11-07T10:35:04.215Z,35
2016-11-07T10:36:04.225Z,35
2016-11-07T10:38:04.269Z,45
2016-11-07T10:39:19.204Z,45
2016-11-07T10:40:04.307Z,45
2016-11-07T10:41:04.318Z,50
2016-11-07T10:42:04.353Z,50
2016-11-07T10:43:04.365Z,50
2016-11-07T10:45:04.400Z,55
2016-11-07T10:46:04.411Z,55
2016-11-07T10:47:04.436Z,60
2016-11-07T10:48:04.486Z,60
2016-11-07T10:49:04.484Z,65
2016-11-07T10:50:04.531Z,70
2016-11-07T10:51:19.436Z,75
2016-11-07T10:52:04.540Z,80
2016-11-07T10:53:04.566Z,85
2016-11-07T10:54:19.490Z,90
2016-11-07T10:55:19.512Z,90
2016-11-07T10:56:19.531Z,90
2016-11-07T10:57:04.658Z,90
2016-11-07T10:58:04.949Z,85
2016-11-07T10:59:04.667Z,90
2016-11-07T11:00:04.684Z,90
2016-11-07T11:01:04.752Z,95
2016-11-07T11:02:04.725Z,95
2016-11-07T11:03:04.784Z,95
2016-11-07T11:04:04.768Z,95
2016-11-07T11:05:04.786Z,95
2016-11-07T11:06:19.722Z,90
2016-11-07T11:07:05.243Z,90
2016-11-07T11:08:04.836Z,95
2016-11-07T11:09:04.849Z,90
2016-11-07T11:10:04.876Z,95
2016-11-07T11:11:19.823Z,100
2016-11-07T11:12:04.919Z,100
2016-11-07T11:14:04.958Z,105
2016-11-07T11:15:04.976Z,110
2016-11-07T11:16:04.996Z,110
2016-11-07T11:17:05.013Z,110
2016-11-07T11:18:05.030Z,110
2016-11-07T11:19:19.977Z,110
2016-11-07T11:20:05.074Z,110
2016-11-07T11:21:05.127Z,115
2016-11-07T11:22:05.105Z,115
2016-11-07T11:23:05.140Z,110
2016-11-07T11:24:05.144Z,100
2016-11-07T11:25:05.202Z,95
2016-11-07T11:26:20.112Z,85
2016-11-07T11:27:05.216Z,80
2016-11-07T11:28:05.228Z,75
2016-11-07T11:29:20.171Z,75
2016-11-07T11:30:05.260Z,75
2016-11-07T11:31:05.287Z,80
2016-11-07T11:32:05.309Z,85
2016-11-07T11:33:05.339Z,90
2016-11-07T11:34:05.350Z,95
2016-11-07T11:35:05.361Z,95
2016-11-07T11:36:05.391Z,95
2016-11-07T11:37:05.398Z,95
2016-11-07T11:38:06.418Z,100
2016-11-07T11:39:20.363Z,100
2016-11-07T11:40:05.451Z,100
2016-11-07T11:41:05.479Z,100
2016-11-07T11:42:05.502Z,100
2016-11-07T11:43:05.524Z,95
2016-11-07T11:44:05.539Z,95
2016-11-07T11:45:05.562Z,90
2016-11-07T11:46:05.580Z,90
2016-11-07T11:47:05.603Z,85
2016-11-07T11:48:05.915Z,80
2016-11-07T11:50:05.661Z,75
2016-11-07T11:51:05.704Z,75
2016-11-07T11:53:05.714Z,90
2016-11-07T11:54:05.729Z,95
2016-11-07T11:55:06.154Z,95
2016-11-07T11:56:05.796Z,95
2016-11-07T11:57:05.791Z,100
2016-11-07T11:58:20.735Z,95
2016-11-07T11:59:20.748Z,90
2016-11-07T12:00:06.156Z,85
2016-11-07T12:01:05.897Z,85
2016-11-07T12:02:06.312Z,85
2016-11-07T12:03:05.904Z,85
2016-11-07T12:04:05.923Z,85
2016-11-07T12:05:05.946Z,85
2016-11-07T12:07:06.000Z,85
2016-11-07T12:08:06.016Z,85
2016-11-07T12:09:06.023Z,80
2016-11-07T12:10:06.049Z,80
2016-11-07T12:11:06.060Z,80
2016-11-07T12:12:06.078Z,80
2016-11-07T12:13:35.948Z,80
2016-11-07T12:14:21.043Z,80
2016-11-07T12:15:06.396Z,85
2016-11-07T12:16:21.086Z,85
2016-11-07T12:17:06.184Z,85
2016-11-07T12:18:06.196Z,85
2016-11-07T12:19:06.515Z,85
2016-11-07T12:20:06.241Z,85
2016-11-07T12:21:06.263Z,85
2016-11-07T12:22:06.277Z,80
2016-11-07T12:23:06.292Z,80
2016-11-07T12:24:06.315Z,80
2016-11-07T12:25:06.337Z,80
2016-11-07T12:26:06.367Z,80
2016-11-07T12:27:06.376Z,75
2016-11-07T12:28:06.389Z,75
2016-11-07T12:29:06.411Z,75
2016-11-07T12:30:21.360Z,75
2016-11-07T12:32:06.475Z,75
2016-11-07T12:33:06.495Z,75
2016-11-07T12:34:06.509Z,75
2016-11-07T12:35:06.531Z,70
2016-11-07T12:36:06.647Z,70
2016-11-07T12:37:21.494Z,65
2016-11-07T12:38:06.579Z,65
2016-11-07T12:39:06.604Z,60
2016-11-07T12:40:21.557Z,60
2016-11-07T12:41:06.651Z,60
2016-11-07T12:42:06.660Z,55
2016-11-07T12:43:06.689Z,55
2016-11-07T12:45:06.733Z,50
2016-11-07T12:47:06.880Z,55
2016-11-07T12:48:06.779Z,60
2016-11-07T12:49:06.802Z,60
2016-11-07T12:50:06.826Z,60
2016-11-07T12:51:06.844Z,60
2016-11-07T12:52:06.866Z,60
2016-11-07T12:53:06.876Z,55
2016-11-07T12:54:06.897Z,55
2016-11-07T12:55:06.917Z,55
2016-11-07T12:56:06.974Z,50
2016-11-07T12:57:06.948Z,50
2016-11-07T12:58:36.825Z,50
2016-11-07T12:59:06.992Z,50
2016-11-07T13:00:21.969Z,55
2016-11-07T13:01:21.958Z,55
2016-11-07T13:02:22.080Z,55
2016-11-07T13:03:07.082Z,55
2016-11-07T13:04:07.097Z,60
2016-11-07T13:05:07.109Z,55
2016-11-07T13:06:07.166Z,55
2016-11-07T13:07:22.074Z,55
2016-11-07T13:08:07.182Z,55
2016-11-07T13:09:07.227Z,55
2016-11-07T13:10:07.209Z,50
2016-11-07T13:11:22.146Z,50
2016-11-07T13:13:07.271Z,50
2016-11-07T13:14:07.540Z,50
2016-11-07T13:15:07.307Z,50
2016-11-07T13:16:07.327Z,50
2016-11-07T13:17:07.351Z,50
2016-11-07T13:18:07.370Z,50
2016-11-07T13:19:07.381Z,45
2016-11-07T13:20:07.404Z,45
2016-11-07T13:21:07.423Z,45
2016-11-07T13:22:07.438Z,45
2016-11-07T13:23:22.384Z,40
2016-11-07T13:24:07.515Z,40
2016-11-07T13:25:07.501Z,40
2016-11-07T13:26:07.535Z,35
2016-11-07T13:27:07.573Z,35
2016-11-07T13:28:07.555Z,35
2016-11-07T13:29:07.583Z,30
2016-11-07T13:30:22.524Z,30
2016-11-07T13:31:07.655Z,30
2016-11-07T13:32:22.556Z,30
2016-11-07T13:33:22.577Z,30
2016-11-07T13:34:07.673Z,30
2016-11-07T13:35:08.038Z,35
2016-11-07T13:36:37.857Z,35
2016-11-07T13:37:07.727Z,35
2016-11-07T13:38:07.782Z,35
2016-11-07T13:39:07.772Z,35
2016-11-07T13:40:08.101Z,35
2016-11-07T13:41:07.800Z,35
2016-11-07T13:42:07.830Z,35
2016-11-07T13:43:22.769Z,35
2016-11-07T13:44:07.906Z,35
2016-11-07T13:45:08.187Z,35
2016-11-07T13:46:22.823Z,30
2016-11-07T13:47:22.850Z,30
2016-11-07T13:48:07.938Z,30
2016-11-07T13:49:22.881Z,30
2016-11-07T13:50:07.978Z,30
2016-11-07T13:51:08.005Z,30
2016-11-07T13:52:08.019Z,30
2016-11-07T13:53:08.039Z,30
2016-11-07T13:54:23.129Z,30
2016-11-07T13:56:08.096Z,30
2016-11-07T13:57:08.117Z,30
2016-11-07T13:58:08.128Z,30
2016-11-07T13:59:08.156Z,30
2016-11-07T14:00:08.172Z,25
2016-11-07T14:01:08.193Z,25
2016-11-07T14:02:08.208Z,25
2016-11-07T14:03:08.224Z,25
2016-11-07T14:04:08.245Z,25
2016-11-07T14:05:23.194Z,25
2016-11-07T14:06:08.287Z,25
2016-11-07T14:07:08.306Z,25
2016-11-07T14:08:08.334Z,25
2016-11-07T14:09:08.348Z,25
2016-11-07T14:10:09.062Z,25
2016-11-07T14:11:08.384Z,25
2016-11-07T14:12:08.718Z,25
2016-11-07T14:13:08.458Z,20
2016-11-07T14:14:08.443Z,20
2016-11-07T14:15:08.461Z,20
2016-11-07T14:16:08.490Z,20
2016-11-07T14:17:23.424Z,20
2016-11-07T14:18:08.517Z,20
2016-11-07T14:19:08.543Z,20
2016-11-07T14:20:23.477Z,20
2016-11-07T14:21:23.848Z,15
2016-11-07T14:22:08.590Z,15
2016-11-07T14:23:08.610Z,15
2016-11-07T14:24:08.632Z,15
2016-11-07T14:25:08.653Z,15
2016-11-07T14:26:08.673Z,15
2016-11-07T14:27:23.605Z,15
2016-11-07T14:28:08.743Z,15
2016-11-07T14:29:08.719Z,15
2016-11-07T14:30:08.751Z,15
2016-11-07T14:31:08.796Z,15
2016-11-07T14:32:08.778Z,15
2016-11-07T14:33:08.798Z,15
2016-11-07T14:34:08.822Z,15
2016-11-07T14:35:08.838Z,15
2016-11-07T14:36:23.782Z,10
2016-11-07T14:37:08.879Z,10
2016-11-07T14:38:23.843Z,10
2016-11-07T14:39:08.909Z,10
2016-11-07T14:40:08.929Z,10
2016-11-07T14:41:09.105Z,10
2016-11-07T14:42:08.961Z,10
2016-11-07T14:43:09.042Z,10
2016-11-07T14:44:24.119Z,10
2016-11-07T14:45:09.019Z,10
2016-11-07T14:46:09.540Z,10
2016-11-07T14:47:09.155Z,10
2016-11-07T14:48:09.098Z,10
2016-11-07T14:49:24.267Z,10
2016-11-07T14:50:09.265Z,10
2016-11-07T14:51:24.210Z,10
2016-11-07T14:52:09.751Z,10
2016-11-07T14:53:09.173Z,5
2016-11-07T14:54:09.188Z,5
2016-11-07T14:55:09.211Z,5
2016-11-07T14:56:24.568Z,5
2016-11-07T14:57:09.905Z,5
2016-11-07T14:58:09.665Z,5
2016-11-07T14:59:13.043Z,5
2016-11-07T15:00:25.420Z,5
2016-11-07T15:01:11.477Z,5
2016-11-07T15:02:10.603Z,5
2016-11-07T15:03:24.483Z,5
2016-11-07T15:04:25.800Z,5
2016-11-07T15:05:39.639Z,5
2016-11-07T15:06:12.521Z,5
2016-11-07T15:07:10.026Z,5
2016-11-07T15:08:39.291Z,5
2016-11-07T15:09:10.023Z,5
2016-11-07T15:10:09.698Z,5
2016-11-07T15:11:10.296Z,0
2016-11-07T15:12:24.442Z,0
2016-11-07T15:13:10.694Z,0
2016-11-07T15:15:11.641Z,0
2016-11-07T15:16:11.698Z,0
2016-11-07T15:17:11.367Z,0
2016-11-07T15:18:09.985Z,0
2016-11-07T15:19:25.021Z,0